createdAt,value
2023-05-05T00:02:45.297Z,7.40
2023-05-05T00:05:55.487Z,5.18
2023-05-05T00:08:58.918Z,7.23
2023-05-05T00:12:02.287Z,6.30
2023-05-05T00:15:05.970Z,5.97
2023-05-05T00:18:09.698Z,6.85
2023-05-05T00:21:13.625Z,6.65
2023-05-05T00:24:17.027Z,6.13
2023-05-05T00:27:20.215Z,6.15
2023-05-05T00:30:23.607Z,5.00
2023-05-05T00:33:27.490Z,6.05
2023-05-05T00:36:30.671Z,6.38
2023-05-05T00:39:34.553Z,5.50
2023-05-05T00:42:51.026Z,5.60
2023-05-05T00:46:01.371Z,11.32
2023-05-05T00:49:05.975Z,7.00
2023-05-05T00:52:10.318Z,8.73
2023-05-05T00:55:14.042Z,6.07
2023-05-05T00:58:18.452Z,6.63
2023-05-05T01:01:22.637Z,6.32
2023-05-05T01:04:29.016Z,4.78
2023-05-05T01:07:40.799Z,5.15
2023-05-05T01:10:50.685Z,6.60
2023-05-05T01:14:13.803Z,7.93
2023-05-05T01:17:19.536Z,6.78
2023-05-05T01:20:29.571Z,5.47
2023-05-05T01:24:13.795Z,6.15
2023-05-05T01:27:19.607Z,5.17
2023-05-05T01:30:41.181Z,7.25
2023-05-05T01:33:48.402Z,7.53
2023-05-05T01:36:58.563Z,6.10
2023-05-05T01:40:07.024Z,5.18
2023-05-05T01:43:13.751Z,6.77
2023-05-05T01:46:19.421Z,6.90
2023-05-05T01:49:23.791Z,6.32
2023-05-05T01:52:28.211Z,5.85
2023-05-05T01:55:33.569Z,7.47
2023-05-05T01:58:38.205Z,4.90
2023-05-05T02:01:44.879Z,6.68
2023-05-05T02:04:51.981Z,6.15
2023-05-05T02:07:58.231Z,10.50
2023-05-05T02:11:01.644Z,31.85
2023-05-05T02:14:07.442Z,37.23
2023-05-05T02:17:12.336Z,38.28
2023-05-05T02:20:17.229Z,32.47
2023-05-05T02:23:20.545Z,28.27
2023-05-05T02:26:24.956Z,25.00
2023-05-05T02:29:34.205Z,17.53
2023-05-05T02:32:45.391Z,16.33
2023-05-05T02:35:52.136Z,15.38
2023-05-05T02:39:03.536Z,17.50
2023-05-05T02:42:15.828Z,19.92
2023-05-05T02:45:22.406Z,13.20
2023-05-05T02:48:26.866Z,14.48
2023-05-05T02:51:31.115Z,13.20
2023-05-05T02:54:38.072Z,9.88
2023-05-05T02:58:02.490Z,9.90
2023-05-05T03:01:29.393Z,6.13
2023-05-05T03:04:39.971Z,9.80
2023-05-05T03:07:54.002Z,8.25
2023-05-05T03:11:05.188Z,7.78
2023-05-05T03:14:13.405Z,9.30
2023-05-05T03:17:19.883Z,8.87
2023-05-05T03:20:23.599Z,10.20
2023-05-05T03:23:27.284Z,10.95
2023-05-05T03:26:34.364Z,11.25
2023-05-05T03:29:37.518Z,11.48
2023-05-05T03:32:44.840Z,7.23
2023-05-05T03:35:47.898Z,10.45
2023-05-05T03:38:53.995Z,9.07
2023-05-05T03:42:36.797Z,8.02
2023-05-05T03:45:40.179Z,7.65
2023-05-05T03:48:43.828Z,6.53
2023-05-05T03:51:47.836Z,5.80
2023-05-05T03:54:51.507Z,6.93
2023-05-05T03:57:54.705Z,9.00
2023-05-05T04:00:57.770Z,12.10
2023-05-05T04:04:02.514Z,9.53
2023-05-05T04:07:06.190Z,7.38
2023-05-05T04:10:10.167Z,8.93
2023-05-05T04:13:13.298Z,10.77
2023-05-05T04:16:16.855Z,6.82
2023-05-05T04:19:20.244Z,11.00
2023-05-05T04:22:23.478Z,10.75
2023-05-05T04:25:27.009Z,10.70
2023-05-05T04:28:30.352Z,11.13
2023-05-05T04:31:33.639Z,15.20
2023-05-05T04:34:37.437Z,14.40
2023-05-05T04:37:41.319Z,11.90
2023-05-05T04:40:50.806Z,11.93
2023-05-05T04:43:55.690Z,10.85
2023-05-05T04:47:00.622Z,8.57
2023-05-05T04:50:04.312Z,7.37
2023-05-05T04:53:07.868Z,7.82
2023-05-05T04:56:11.240Z,11.00
2023-05-05T04:59:15.515Z,12.90
2023-05-05T05:02:18.897Z,11.35
2023-05-05T05:05:22.172Z,9.73
2023-05-05T05:08:25.442Z,10.55
2023-05-05T05:11:28.651Z,8.63
2023-05-05T05:14:39.494Z,5.90
2023-05-05T05:17:42.824Z,8.00
2023-05-05T05:20:46.512Z,8.97
2023-05-05T05:23:50.399Z,6.28
2023-05-05T05:26:53.573Z,7.13
2023-05-05T05:29:57.448Z,8.18
2023-05-05T05:33:02.474Z,6.60
2023-05-05T05:36:06.293Z,7.63
2023-05-05T05:39:09.433Z,6.00
2023-05-05T05:42:12.906Z,10.80
2023-05-05T05:45:16.875Z,6.93
2023-05-05T05:48:22.374Z,5.97
2023-05-05T05:51:26.460Z,8.47
2023-05-05T05:54:30.158Z,7.72
2023-05-05T05:57:33.440Z,7.90
2023-05-05T06:00:40.103Z,7.63
2023-05-05T06:03:45.861Z,8.95
2023-05-05T06:06:49.360Z,5.70
2023-05-05T06:09:57.395Z,6.57
2023-05-05T06:13:00.915Z,8.73
2023-05-05T06:16:06.905Z,6.88
2023-05-05T06:19:10.842Z,8.07
2023-05-05T06:22:14.610Z,6.63
2023-05-05T06:25:18.074Z,7.45
2023-05-05T06:28:22.029Z,7.07
2023-05-05T06:31:25.312Z,7.55
2023-05-05T06:34:28.976Z,8.90
2023-05-05T06:37:32.175Z,4.63
2023-05-05T06:40:36.048Z,7.32
2023-05-05T06:43:39.885Z,6.85
2023-05-05T06:46:49.133Z,5.10
2023-05-05T06:49:52.493Z,5.82
2023-05-05T06:52:56.926Z,12.47
2023-05-05T06:56:00.388Z,4.93
2023-05-05T06:59:03.584Z,9.02
2023-05-05T07:02:07.112Z,5.78
2023-05-05T07:05:10.705Z,6.95
2023-05-05T07:08:13.833Z,8.73
2023-05-05T07:11:17.298Z,7.43
2023-05-05T07:14:22.099Z,8.18
2023-05-05T07:17:27.653Z,7.93
2023-05-05T07:20:30.997Z,8.02
2023-05-05T07:23:34.754Z,7.37
2023-05-05T07:26:38.592Z,7.90
2023-05-05T07:29:41.669Z,11.27
2023-05-05T07:32:47.055Z,8.48
2023-05-05T07:35:50.227Z,8.05
2023-05-05T07:38:53.660Z,7.63
2023-05-05T07:41:57.447Z,8.02
2023-05-05T07:45:00.858Z,6.93
2023-05-05T07:48:04.163Z,9.65
2023-05-05T07:51:07.222Z,7.70
2023-05-05T07:54:12.341Z,7.70
2023-05-05T07:57:15.733Z,8.73
2023-05-05T08:00:19.709Z,8.80
2023-05-05T08:03:24.905Z,7.82
2023-05-05T08:06:29.398Z,6.55
2023-05-05T08:09:32.534Z,7.83
2023-05-05T08:12:36.401Z,7.95
2023-05-05T08:15:39.747Z,7.72
2023-05-05T08:18:42.878Z,7.10
2023-05-05T08:21:47.615Z,7.68
2023-05-05T08:24:51.990Z,10.43
2023-05-05T08:27:55.138Z,5.80
2023-05-05T08:31:07.146Z,6.68
2023-05-05T08:34:13.910Z,4.35
2023-05-05T08:37:19.064Z,4.35
2023-05-05T08:40:29.459Z,5.60
2023-05-05T08:43:35.956Z,5.78
2023-05-05T08:46:39.326Z,4.20
2023-05-05T08:49:46.988Z,5.32
2023-05-05T08:52:57.561Z,5.05
2023-05-05T08:56:03.033Z,4.63
2023-05-05T08:59:07.034Z,3.33
2023-05-05T09:02:11.228Z,5.40
2023-05-05T09:05:15.369Z,4.78
2023-05-05T09:08:45.376Z,5.60
2023-05-05T09:11:48.769Z,4.47
2023-05-05T09:14:52.197Z,6.05
2023-05-05T09:17:58.476Z,5.80
2023-05-05T09:21:27.843Z,5.20
2023-05-05T09:24:32.002Z,4.88
2023-05-05T09:27:40.855Z,5.10
2023-05-05T09:30:47.602Z,3.08
2023-05-05T09:33:51.626Z,4.13
2023-05-05T09:36:54.966Z,3.53
2023-05-05T09:40:01.219Z,4.00
2023-05-05T09:43:04.529Z,3.87
2023-05-05T09:46:08.524Z,3.55
2023-05-05T09:49:19.774Z,2.90
2023-05-05T09:52:23.389Z,2.60
2023-05-05T09:55:26.736Z,2.88
2023-05-05T09:58:31.633Z,2.43
2023-05-05T10:01:35.442Z,6.07
2023-05-05T10:04:39.639Z,3.25
2023-05-05T10:07:47.959Z,5.00
2023-05-05T10:11:00.703Z,8.77
2023-05-05T10:14:06.810Z,3.47
2023-05-05T10:17:11.038Z,3.25
2023-05-05T10:20:16.030Z,4.45
2023-05-05T10:23:21.602Z,2.28
2023-05-05T10:26:26.868Z,2.28
2023-05-05T10:29:48.736Z,2.70
2023-05-05T10:33:07.883Z,3.72
2023-05-05T10:36:16.970Z,2.63
2023-05-05T10:39:21.330Z,1.80
2023-05-05T10:42:25.170Z,4.22
2023-05-05T10:45:28.851Z,2.77
2023-05-05T10:48:58.005Z,3.03
2023-05-05T10:52:19.814Z,2.75
2023-05-05T10:55:36.070Z,1.67
2023-05-05T10:58:58.200Z,1.65
2023-05-05T11:02:25.032Z,3.17
2023-05-05T11:05:28.430Z,2.03
2023-05-05T11:08:42.744Z,2.47
2023-05-05T11:12:05.696Z,3.08
2023-05-05T11:15:26.906Z,3.30
2023-05-05T11:18:35.882Z,2.47
2023-05-05T11:22:02.228Z,3.42
2023-05-05T11:25:41.047Z,2.30
2023-05-05T11:28:57.725Z,3.58
2023-05-05T11:32:16.434Z,2.83
2023-05-05T11:35:20.108Z,2.03
2023-05-05T11:39:13.353Z,2.13
2023-05-05T11:42:24.750Z,2.42
2023-05-05T11:45:28.063Z,2.63
2023-05-05T11:48:31.684Z,3.10
2023-05-05T11:51:35.225Z,2.20
2023-05-05T11:54:41.820Z,2.90
2023-05-05T11:57:45.128Z,3.50
2023-05-05T12:00:48.514Z,3.58
2023-05-05T12:03:52.011Z,4.43
2023-05-05T12:06:55.812Z,3.00
2023-05-05T12:10:00.090Z,3.30
2023-05-05T12:13:21.314Z,3.92
2023-05-05T12:16:24.522Z,2.63
2023-05-05T12:19:33.434Z,3.10
2023-05-05T12:22:36.570Z,2.97
2023-05-05T12:25:40.574Z,3.17
2023-05-05T12:28:48.282Z,3.22
2023-05-05T12:31:51.896Z,3.47
2023-05-05T12:34:57.756Z,3.42
2023-05-05T12:38:00.981Z,2.77
2023-05-05T12:41:04.028Z,1.70
2023-05-05T12:44:07.199Z,1.98
2023-05-05T12:47:12.037Z,2.75
2023-05-05T12:50:15.245Z,2.25
2023-05-05T12:53:25.718Z,2.20
2023-05-05T12:56:34.308Z,2.17
2023-05-05T12:59:37.889Z,2.22
2023-05-05T13:02:41.462Z,2.47
2023-05-05T13:05:45.063Z,2.50
2023-05-05T13:08:48.517Z,3.07
2023-05-05T13:11:52.689Z,2.13
2023-05-05T13:14:55.979Z,2.20
2023-05-05T13:18:01.353Z,3.88
2023-05-05T13:21:05.217Z,2.35
2023-05-05T13:24:25.288Z,1.87
2023-05-05T13:27:32.360Z,3.15
2023-05-05T13:30:35.429Z,2.15
2023-05-05T13:33:38.589Z,2.47
2023-05-05T13:36:42.072Z,2.67
2023-05-05T13:39:45.320Z,3.00
2023-05-05T13:42:48.706Z,3.30
2023-05-05T13:45:55.969Z,2.15
2023-05-05T13:49:03.660Z,2.72
2023-05-05T13:52:06.739Z,3.17
2023-05-05T13:55:10.218Z,2.00
2023-05-05T13:58:13.551Z,2.42
2023-05-05T14:01:16.486Z,2.13
2023-05-05T14:04:19.607Z,2.40
2023-05-05T14:07:22.994Z,2.42
2023-05-05T14:10:29.881Z,3.23
2023-05-05T14:13:32.873Z,2.30
2023-05-05T14:16:36.397Z,3.38
2023-05-05T14:19:39.439Z,3.08
2023-05-05T14:22:42.694Z,1.88
2023-05-05T14:25:45.565Z,2.93
2023-05-05T14:28:49.851Z,3.17
2023-05-05T14:31:53.662Z,3.53
2023-05-05T14:34:57.263Z,2.35
2023-05-05T14:38:00.462Z,2.75
2023-05-05T14:41:03.883Z,2.60
2023-05-05T14:44:07.186Z,1.75
2023-05-05T14:47:10.249Z,3.28
2023-05-05T14:50:14.348Z,4.05
2023-05-05T14:53:19.257Z,2.42
2023-05-05T14:56:22.917Z,2.97
2023-05-05T14:59:26.483Z,2.05
2023-05-05T15:02:30.009Z,3.58
2023-05-05T15:05:35.754Z,1.88
2023-05-05T15:08:41.857Z,2.10
2023-05-05T15:11:45.681Z,2.30
2023-05-05T15:14:49.341Z,2.38
2023-05-05T15:17:52.609Z,4.80
2023-05-05T15:20:55.704Z,2.55
2023-05-05T15:23:59.204Z,4.07
2023-05-05T15:27:03.073Z,2.20
2023-05-05T15:30:07.290Z,2.25
2023-05-05T15:33:10.601Z,1.80
2023-05-05T15:36:13.660Z,2.55
2023-05-05T15:39:17.545Z,1.83
2023-05-05T15:42:20.885Z,2.83
2023-05-05T15:45:23.725Z,2.50
2023-05-05T15:48:27.043Z,2.85
2023-05-05T15:51:30.087Z,6.65
2023-05-05T15:54:33.210Z,1.90
2023-05-05T15:57:36.231Z,2.77
2023-05-05T16:00:41.747Z,1.70
2023-05-05T16:03:45.737Z,1.60
2023-05-05T16:06:48.952Z,2.00
2023-05-05T16:09:52.622Z,1.90
2023-05-05T16:12:56.586Z,1.87
2023-05-05T16:15:59.835Z,1.52
2023-05-05T16:19:02.932Z,2.33
2023-05-05T16:22:06.532Z,1.48
2023-05-05T16:25:10.327Z,1.70
2023-05-05T16:28:13.866Z,2.33
2023-05-05T16:31:16.963Z,1.70
2023-05-05T16:34:20.267Z,2.58
2023-05-05T16:37:23.192Z,1.75
2023-05-05T16:40:26.205Z,2.50
2023-05-05T16:43:29.293Z,2.17
2023-05-05T16:46:35.589Z,2.33
2023-05-05T16:49:38.702Z,2.38
2023-05-05T16:52:41.923Z,2.00
2023-05-05T16:55:45.047Z,2.88
2023-05-05T16:58:47.917Z,3.00
2023-05-05T17:01:50.886Z,4.13
2023-05-05T17:04:53.935Z,3.58
2023-05-05T17:07:56.849Z,3.30
2023-05-05T17:10:59.779Z,3.67
2023-05-05T17:14:02.956Z,3.60
2023-05-05T17:17:07.168Z,3.53
2023-05-05T17:20:11.382Z,2.65
2023-05-05T17:23:14.450Z,3.95
2023-05-05T17:26:17.413Z,3.00
2023-05-05T17:29:21.751Z,3.23
2023-05-05T17:32:25.269Z,2.58
2023-05-05T17:35:28.340Z,2.85
2023-05-05T17:38:31.284Z,2.60
2023-05-05T17:41:34.378Z,2.70
2023-05-05T17:44:37.396Z,3.43
2023-05-05T17:47:40.380Z,4.65
2023-05-05T17:50:43.620Z,2.20
2023-05-05T17:53:46.679Z,3.10
2023-05-05T17:56:49.926Z,5.00
2023-05-05T17:59:53.823Z,5.53
2023-05-05T18:02:57.043Z,7.80
2023-05-05T18:06:00.149Z,6.30
2023-05-05T18:09:03.455Z,10.57
2023-05-05T18:12:07.936Z,9.43
2023-05-05T18:15:11.651Z,13.77
2023-05-05T18:18:14.988Z,12.95
2023-05-05T18:21:17.949Z,10.57
2023-05-05T18:24:21.359Z,11.43
2023-05-05T18:27:26.615Z,13.35
2023-05-05T18:30:29.890Z,14.40
2023-05-05T18:33:33.038Z,16.88
2023-05-05T18:36:36.340Z,16.73
2023-05-05T18:39:40.169Z,14.15
2023-05-05T18:42:44.190Z,13.27
2023-05-05T18:45:47.163Z,9.30
2023-05-05T18:48:50.712Z,7.15
2023-05-05T18:51:54.021Z,6.18
2023-05-05T18:54:57.179Z,9.07
2023-05-05T18:58:00.454Z,6.35
2023-05-05T19:01:03.737Z,7.67
2023-05-05T19:04:12.838Z,7.30
2023-05-05T19:07:33.743Z,6.70
2023-05-05T19:10:38.309Z,5.25
2023-05-05T19:13:41.775Z,5.60
2023-05-05T19:16:45.433Z,4.60
2023-05-05T19:19:49.055Z,5.53
2023-05-05T19:22:52.646Z,5.93
2023-05-05T19:25:56.121Z,4.95
2023-05-05T19:28:59.588Z,5.78
2023-05-05T19:32:02.770Z,5.57
2023-05-05T19:35:06.883Z,4.70
2023-05-05T19:38:10.469Z,5.07
2023-05-05T19:41:13.854Z,6.25
2023-05-05T19:44:17.034Z,6.15
2023-05-05T19:47:20.746Z,6.87
2023-05-05T19:50:24.466Z,5.60
2023-05-05T19:53:27.864Z,5.30
2023-05-05T19:56:31.088Z,9.05
2023-05-05T19:59:34.114Z,9.05
2023-05-05T20:02:39.922Z,5.53
2023-05-05T20:05:42.935Z,5.32
2023-05-05T20:08:46.320Z,5.82
2023-05-05T20:11:49.334Z,5.63
2023-05-05T20:14:52.290Z,7.93
2023-05-05T20:17:55.408Z,8.67
2023-05-05T20:20:59.133Z,5.85
2023-05-05T20:24:02.343Z,6.65
2023-05-05T20:27:05.781Z,5.65
2023-05-05T20:30:10.292Z,5.38
2023-05-05T20:33:13.986Z,5.57
2023-05-05T20:36:18.077Z,4.90
2023-05-05T20:39:21.367Z,5.85
2023-05-05T20:42:25.682Z,7.35
2023-05-05T20:45:31.797Z,5.70
2023-05-05T20:48:35.364Z,6.63
2023-05-05T20:51:39.020Z,8.32
2023-05-05T20:54:42.218Z,4.28
2023-05-05T20:57:45.249Z,7.03
2023-05-05T21:00:48.682Z,4.70
2023-05-05T21:03:51.993Z,6.03
2023-05-05T21:06:55.405Z,4.63
2023-05-05T21:09:58.273Z,6.47
2023-05-05T21:13:02.634Z,6.43
2023-05-05T21:16:05.940Z,6.53
2023-05-05T21:19:09.458Z,6.07
2023-05-05T21:22:12.848Z,6.60
2023-05-05T21:25:21.392Z,5.82
2023-05-05T21:28:24.520Z,6.55
2023-05-05T21:31:27.812Z,7.40
2023-05-05T21:34:30.829Z,7.57
2023-05-05T21:37:34.430Z,8.95
2023-05-05T21:40:37.643Z,6.50
2023-05-05T21:43:40.556Z,7.10
2023-05-05T21:46:43.896Z,6.13
2023-05-05T21:49:47.024Z,7.27
2023-05-05T21:52:50.275Z,6.05
2023-05-05T21:55:53.333Z,6.93
2023-05-05T21:58:57.032Z,6.60
2023-05-05T22:02:00.328Z,6.18
2023-05-05T22:05:03.402Z,10.43
2023-05-05T22:08:06.531Z,7.78
2023-05-05T22:11:09.774Z,7.18
2023-05-05T22:14:12.761Z,8.40
2023-05-05T22:17:16.144Z,7.10
2023-05-05T22:20:19.621Z,6.33
2023-05-05T22:23:22.981Z,7.15
2023-05-05T22:26:26.370Z,6.63
2023-05-05T22:29:29.568Z,7.32
2023-05-05T22:32:32.718Z,9.18
2023-05-05T22:35:37.507Z,6.27
2023-05-05T22:38:40.865Z,7.20
2023-05-05T22:41:44.760Z,6.53
2023-05-05T22:44:47.836Z,4.97
2023-05-05T22:47:51.182Z,8.27
2023-05-05T22:50:54.579Z,7.47
2023-05-05T22:53:57.592Z,5.28
2023-05-05T22:57:00.880Z,6.70
2023-05-05T23:00:05.500Z,6.32
2023-05-05T23:03:09.463Z,5.90
2023-05-05T23:06:12.785Z,8.03
2023-05-05T23:09:16.207Z,8.80
2023-05-05T23:12:20.176Z,5.78
2023-05-05T23:15:24.057Z,6.47
2023-05-05T23:18:27.156Z,6.47
2023-05-05T23:21:32.083Z,7.20
2023-05-05T23:24:37.340Z,6.70
2023-05-05T23:27:41.417Z,9.25
2023-05-05T23:30:44.609Z,8.88
2023-05-05T23:33:47.802Z,7.88
2023-05-05T23:36:51.854Z,8.07
2023-05-05T23:39:55.077Z,7.32
2023-05-05T23:42:58.760Z,8.40
2023-05-05T23:46:01.723Z,9.45
2023-05-05T23:49:04.986Z,7.70
2023-05-05T23:52:08.116Z,6.90
2023-05-05T23:55:11.776Z,10.48
2023-05-05T23:58:15.057Z,8.50
